createdAt,value
2018-01-16T00:02:34.415Z,74.80
2018-01-16T00:17:34.930Z,73.89
2018-01-16T00:32:35.717Z,73.07
2018-01-16T00:47:34.264Z,72.66
2018-01-16T01:02:36.929Z,72.68
2018-01-16T01:17:34.616Z,72.20
2018-01-16T01:32:34.505Z,72.28
2018-01-16T01:47:34.414Z,72.15
2018-01-16T02:02:34.359Z,72.30
2018-01-16T02:17:34.372Z,72.40
2018-01-16T02:32:34.715Z,72.60
2018-01-16T02:47:34.685Z,72.52
2018-01-16T03:02:34.574Z,72.44
2018-01-16T03:17:34.596Z,72.75
2018-01-16T03:32:34.955Z,72.48
2018-01-16T03:47:35.517Z,72.65
2018-01-16T04:02:34.762Z,72.61
2018-01-16T04:17:54.768Z,72.82
2018-01-16T04:32:37.208Z,72.95
2018-01-16T04:47:35.470Z,72.09
2018-01-16T05:02:35.556Z,73.27
2018-01-16T05:17:39.238Z,73.36
2018-01-16T05:32:34.425Z,73.13
2018-01-16T05:47:34.408Z,73.07
2018-01-16T06:02:36.279Z,73.65
2018-01-16T06:17:35.817Z,73.98
2018-01-16T06:32:36.612Z,74.85
2018-01-16T06:47:36.562Z,72.73
2018-01-16T07:02:34.402Z,69.95
2018-01-16T07:17:37.486Z,71.54
2018-01-16T07:32:34.811Z,72.38
2018-01-16T07:47:34.779Z,71.96
2018-01-16T08:02:34.688Z,71.33
2018-01-16T08:17:36.635Z,71.00
2018-01-16T08:32:36.524Z,69.69
2018-01-16T08:47:35.988Z,67.72
2018-01-16T09:02:34.365Z,66.71
2018-01-16T09:32:34.195Z,59.54
2018-01-16T09:47:34.680Z,54.25
2018-01-16T10:02:34.687Z,50.32
2018-01-16T10:17:39.578Z,50.46
2018-01-16T10:32:48.303Z,51.68
2018-01-16T10:47:36.811Z,52.35
2018-01-16T11:02:35.305Z,54.99
2018-01-16T11:17:35.647Z,55.52
2018-01-16T11:32:38.687Z,55.47
2018-01-16T11:47:36.128Z,55.98
2018-01-16T12:02:36.109Z,56.51
2018-01-16T12:17:35.090Z,58.27
2018-01-16T12:32:34.911Z,58.63
2018-01-16T12:47:36.362Z,57.73
2018-01-16T13:02:34.781Z,60.07
2018-01-16T13:17:35.832Z,60.76
2018-01-16T13:32:35.085Z,62.40
2018-01-16T13:47:36.065Z,62.74
2018-01-16T14:02:35.837Z,65.04
2018-01-16T14:17:36.875Z,65.99
2018-01-16T14:32:34.296Z,67.09
2018-01-16T15:17:33.726Z,100.00
2018-01-16T16:02:38.864Z,73.04
2018-01-16T16:32:36.239Z,73.38
2018-01-16T16:47:35.737Z,74.01
2018-01-16T17:32:48.467Z,73.37
2018-01-16T18:02:34.939Z,74.34
2018-01-16T18:17:34.904Z,74.34
2018-01-16T19:17:35.051Z,73.03
2018-01-16T19:32:37.836Z,73.77
2018-01-16T20:02:39.720Z,74.45
2018-01-16T21:02:40.590Z,64.02
2018-01-16T21:32:40.380Z,64.36
2018-01-16T21:47:38.418Z,65.37
2018-01-16T22:02:38.987Z,66.59
2018-01-16T22:17:35.278Z,67.23
2018-01-16T22:32:36.057Z,67.41
2018-01-16T23:17:34.473Z,69.48
